sensor_id;sensor_type;location;lat;lon;timestamp;P1;durP1;ratioP1;P2;durP2;ratioP2
19731;SDS011;10017;54.350;18.532;2022-07-23T00:01:49;11.50;;;9.00;;
19731;SDS011;10017;54.350;18.532;2022-07-23T00:04:21;10.38;;;8.35;;
19731;SDS011;10017;54.350;18.532;2022-07-23T00:06:54;12.32;;;8.77;;
19731;SDS011;10017;54.350;18.532;2022-07-23T00:09:26;11.60;;;8.60;;
19731;SDS011;10017;54.350;18.532;2022-07-23T00:11:59;12.18;;;8.45;;
19731;SDS011;10017;54.350;18.532;2022-07-23T00:14:34;11.60;;;8.80;;
19731;SDS011;10017;54.350;18.532;2022-07-23T00:17:08;13.18;;;8.18;;
19731;SDS011;10017;54.350;18.532;2022-07-23T00:19:42;9.35;;;7.80;;
19731;SDS011;10017;54.350;18.532;2022-07-23T00:22:14;10.10;;;7.97;;
19731;SDS011;10017;54.350;18.532;2022-07-23T00:24:47;13.10;;;9.18;;
19731;SDS011;10017;54.350;18.532;2022-07-23T00:27:39;10.23;;;8.32;;
19731;SDS011;10017;54.350;18.532;2022-07-23T00:30:11;11.98;;;9.25;;
19731;SDS011;10017;54.350;18.532;2022-07-23T00:32:44;10.77;;;9.23;;
19731;SDS011;10017;54.350;18.532;2022-07-23T00:35:29;10.95;;;8.35;;
19731;SDS011;10017;54.350;18.532;2022-07-23T00:38:04;12.75;;;8.50;;
19731;SDS011;10017;54.350;18.532;2022-07-23T00:40:38;10.80;;;8.50;;
19731;SDS011;10017;54.350;18.532;2022-07-23T00:43:12;12.70;;;9.40;;
19731;SDS011;10017;54.350;18.532;2022-07-23T00:45:46;10.52;;;9.35;;
19731;SDS011;10017;54.350;18.532;2022-07-23T00:48:20;11.93;;;9.27;;
19731;SDS011;10017;54.350;18.532;2022-07-23T00:50:52;13.82;;;8.38;;
19731;SDS011;10017;54.350;18.532;2022-07-23T00:53:24;10.98;;;8.38;;
19731;SDS011;10017;54.350;18.532;2022-07-23T00:56:02;11.75;;;8.95;;
19731;SDS011;10017;54.350;18.532;2022-07-23T00:58:36;9.82;;;8.18;;
19731;SDS011;10017;54.350;18.532;2022-07-23T01:01:14;9.80;;;8.27;;
19731;SDS011;10017;54.350;18.532;2022-07-23T01:03:48;12.13;;;8.63;;
19731;SDS011;10017;54.350;18.532;2022-07-23T01:06:23;12.00;;;8.55;;
19731;SDS011;10017;54.350;18.532;2022-07-23T01:08:55;11.77;;;9.27;;
19731;SDS011;10017;54.350;18.532;2022-07-23T01:11:29;12.95;;;8.70;;
19731;SDS011;10017;54.350;18.532;2022-07-23T01:14:12;13.57;;;8.73;;
19731;SDS011;10017;54.350;18.532;2022-07-23T01:16:48;12.30;;;9.27;;
19731;SDS011;10017;54.350;18.532;2022-07-23T01:19:21;12.35;;;8.82;;
19731;SDS011;10017;54.350;18.532;2022-07-23T01:21:53;15.98;;;9.70;;
19731;SDS011;10017;54.350;18.532;2022-07-23T01:24:29;11.33;;;9.17;;
19731;SDS011;10017;54.350;18.532;2022-07-23T01:27:06;10.57;;;8.40;;
19731;SDS011;10017;54.350;18.532;2022-07-23T01:29:39;13.23;;;9.83;;
19731;SDS011;10017;54.350;18.532;2022-07-23T01:32:11;14.32;;;9.32;;
19731;SDS011;10017;54.350;18.532;2022-07-23T01:34:43;11.93;;;9.35;;
19731;SDS011;10017;54.350;18.532;2022-07-23T01:37:15;11.73;;;9.07;;
19731;SDS011;10017;54.350;18.532;2022-07-23T01:39:49;13.07;;;8.77;;
19731;SDS011;10017;54.350;18.532;2022-07-23T01:42:24;14.82;;;9.80;;
19731;SDS011;10017;54.350;18.532;2022-07-23T01:44:56;14.13;;;9.45;;
19731;SDS011;10017;54.350;18.532;2022-07-23T01:47:31;11.75;;;8.88;;
19731;SDS011;10017;54.350;18.532;2022-07-23T01:50:03;10.73;;;9.15;;
19731;SDS011;10017;54.350;18.532;2022-07-23T01:52:35;10.95;;;8.98;;
19731;SDS011;10017;54.350;18.532;2022-07-23T01:55:07;11.10;;;9.30;;
19731;SDS011;10017;54.350;18.532;2022-07-23T01:57:51;16.02;;;9.88;;
19731;SDS011;10017;54.350;18.532;2022-07-23T02:00:23;13.07;;;9.10;;
19731;SDS011;10017;54.350;18.532;2022-07-23T02:02:58;17.38;;;10.27;;
19731;SDS011;10017;54.350;18.532;2022-07-23T02:05:30;13.83;;;9.87;;
19731;SDS011;10017;54.350;18.532;2022-07-23T02:08:03;11.63;;;9.63;;
19731;SDS011;10017;54.350;18.532;2022-07-23T02:10:40;13.70;;;9.38;;
19731;SDS011;10017;54.350;18.532;2022-07-23T02:13:12;15.38;;;9.68;;
19731;SDS011;10017;54.350;18.532;2022-07-23T02:15:49;12.90;;;9.52;;
19731;SDS011;10017;54.350;18.532;2022-07-23T02:18:23;12.70;;;9.20;;
19731;SDS011;10017;54.350;18.532;2022-07-23T02:20:55;13.23;;;9.27;;
19731;SDS011;10017;54.350;18.532;2022-07-23T02:23:27;11.48;;;8.35;;
19731;SDS011;10017;54.350;18.532;2022-07-23T02:25:59;13.32;;;8.25;;
19731;SDS011;10017;54.350;18.532;2022-07-23T02:28:33;11.15;;;8.15;;
19731;SDS011;10017;54.350;18.532;2022-07-23T02:31:05;13.52;;;8.65;;
19731;SDS011;10017;54.350;18.532;2022-07-23T02:33:38;13.75;;;9.90;;
19731;SDS011;10017;54.350;18.532;2022-07-23T02:36:12;10.60;;;8.52;;
19731;SDS011;10017;54.350;18.532;2022-07-23T02:38:44;12.38;;;8.27;;
19731;SDS011;10017;54.350;18.532;2022-07-23T02:41:17;10.43;;;7.50;;
19731;SDS011;10017;54.350;18.532;2022-07-23T02:43:49;9.65;;;7.22;;
19731;SDS011;10017;54.350;18.532;2022-07-23T02:46:21;12.07;;;7.53;;
19731;SDS011;10017;54.350;18.532;2022-07-23T02:48:55;11.70;;;8.18;;
19731;SDS011;10017;54.350;18.532;2022-07-23T02:51:28;12.00;;;7.22;;
19731;SDS011;10017;54.350;18.532;2022-07-23T02:54:02;11.85;;;8.15;;
19731;SDS011;10017;54.350;18.532;2022-07-23T02:56:34;11.38;;;7.53;;
19731;SDS011;10017;54.350;18.532;2022-07-23T02:59:06;9.85;;;7.22;;
19731;SDS011;10017;54.350;18.532;2022-07-23T03:01:41;9.23;;;7.05;;
19731;SDS011;10017;54.350;18.532;2022-07-23T03:04:13;8.85;;;7.13;;
19731;SDS011;10017;54.350;18.532;2022-07-23T03:06:45;10.30;;;7.43;;
19731;SDS011;10017;54.350;18.532;2022-07-23T03:09:17;11.73;;;7.30;;
19731;SDS011;10017;54.350;18.532;2022-07-23T03:11:48;10.48;;;7.68;;
19731;SDS011;10017;54.350;18.532;2022-07-23T03:14:23;12.82;;;6.97;;
19731;SDS011;10017;54.350;18.532;2022-07-23T03:16:55;9.00;;;6.97;;
19731;SDS011;10017;54.350;18.532;2022-07-23T03:19:27;8.37;;;6.97;;
19731;SDS011;10017;54.350;18.532;2022-07-23T03:21:59;12.00;;;7.90;;
19731;SDS011;10017;54.350;18.532;2022-07-23T03:24:31;10.18;;;7.68;;
19731;SDS011;10017;54.350;18.532;2022-07-23T03:27:26;10.18;;;7.10;;
19731;SDS011;10017;54.350;18.532;2022-07-23T03:30:00;10.07;;;7.32;;
19731;SDS011;10017;54.350;18.532;2022-07-23T03:32:32;10.90;;;8.68;;
19731;SDS011;10017;54.350;18.532;2022-07-23T03:35:04;11.40;;;8.52;;
19731;SDS011;10017;54.350;18.532;2022-07-23T03:37:39;10.13;;;8.30;;
19731;SDS011;10017;54.350;18.532;2022-07-23T03:40:17;16.23;;;9.05;;
19731;SDS011;10017;54.350;18.532;2022-07-23T03:42:49;9.80;;;8.10;;
19731;SDS011;10017;54.350;18.532;2022-07-23T03:45:23;10.52;;;8.15;;
19731;SDS011;10017;54.350;18.532;2022-07-23T03:47:55;11.45;;;7.72;;
19731;SDS011;10017;54.350;18.532;2022-07-23T03:50:27;9.45;;;8.00;;
19731;SDS011;10017;54.350;18.532;2022-07-23T03:52:59;11.07;;;8.13;;
19731;SDS011;10017;54.350;18.532;2022-07-23T03:55:32;9.13;;;7.82;;
19731;SDS011;10017;54.350;18.532;2022-07-23T03:58:04;10.55;;;8.45;;
19731;SDS011;10017;54.350;18.532;2022-07-23T04:00:37;13.70;;;9.52;;
19731;SDS011;10017;54.350;18.532;2022-07-23T04:03:11;11.77;;;8.68;;
19731;SDS011;10017;54.350;18.532;2022-07-23T04:05:43;14.35;;;9.52;;
19731;SDS011;10017;54.350;18.532;2022-07-23T04:08:18;13.40;;;8.90;;
19731;SDS011;10017;54.350;18.532;2022-07-23T04:10:50;13.43;;;9.02;;
19731;SDS011;10017;54.350;18.532;2022-07-23T04:13:22;13.23;;;9.02;;
19731;SDS011;10017;54.350;18.532;2022-07-23T04:15:56;14.63;;;9.45;;
19731;SDS011;10017;54.350;18.532;2022-07-23T04:18:29;11.50;;;8.85;;
19731;SDS011;10017;54.350;18.532;2022-07-23T04:21:03;14.10;;;8.82;;
19731;SDS011;10017;54.350;18.532;2022-07-23T04:23:37;13.00;;;9.02;;
19731;SDS011;10017;54.350;18.532;2022-07-23T04:26:12;13.25;;;9.25;;
19731;SDS011;10017;54.350;18.532;2022-07-23T04:28:48;15.18;;;9.77;;
19731;SDS011;10017;54.350;18.532;2022-07-23T04:31:20;14.80;;;9.45;;
19731;SDS011;10017;54.350;18.532;2022-07-23T04:33:53;14.00;;;8.77;;
19731;SDS011;10017;54.350;18.532;2022-07-23T04:36:25;15.43;;;9.55;;
19731;SDS011;10017;54.350;18.532;2022-07-23T04:38:57;12.07;;;8.60;;
19731;SDS011;10017;54.350;18.532;2022-07-23T04:41:29;13.47;;;9.40;;
19731;SDS011;10017;54.350;18.532;2022-07-23T04:44:01;15.43;;;8.75;;
19731;SDS011;10017;54.350;18.532;2022-07-23T04:46:37;12.80;;;8.90;;
19731;SDS011;10017;54.350;18.532;2022-07-23T04:49:13;14.65;;;9.45;;
19731;SDS011;10017;54.350;18.532;2022-07-23T04:51:45;11.40;;;8.73;;
19731;SDS011;10017;54.350;18.532;2022-07-23T04:54:19;15.18;;;9.50;;
19731;SDS011;10017;54.350;18.532;2022-07-23T04:56:51;17.70;;;9.02;;
19731;SDS011;10017;54.350;18.532;2022-07-23T04:59:23;14.25;;;8.45;;
19731;SDS011;10017;54.350;18.532;2022-07-23T05:01:55;13.20;;;8.25;;
19731;SDS011;10017;54.350;18.532;2022-07-23T05:04:27;11.48;;;7.95;;
19731;SDS011;10017;54.350;18.532;2022-07-23T05:07:02;12.25;;;8.35;;
19731;SDS011;10017;54.350;18.532;2022-07-23T05:09:34;11.50;;;7.60;;
19731;SDS011;10017;54.350;18.532;2022-07-23T05:12:06;13.93;;;7.55;;
19731;SDS011;10017;54.350;18.532;2022-07-23T05:14:41;13.77;;;6.97;;
19731;SDS011;10017;54.350;18.532;2022-07-23T05:17:13;12.23;;;7.47;;
19731;SDS011;10017;54.350;18.532;2022-07-23T05:19:45;13.82;;;8.38;;
19731;SDS011;10017;54.350;18.532;2022-07-23T05:22:17;16.58;;;7.57;;
19731;SDS011;10017;54.350;18.532;2022-07-23T05:24:49;13.65;;;7.88;;
19731;SDS011;10017;54.350;18.532;2022-07-23T05:27:21;13.85;;;7.80;;
19731;SDS011;10017;54.350;18.532;2022-07-23T05:29:53;13.63;;;8.23;;
19731;SDS011;10017;54.350;18.532;2022-07-23T05:32:25;9.65;;;7.40;;
19731;SDS011;10017;54.350;18.532;2022-07-23T05:34:57;12.73;;;7.22;;
19731;SDS011;10017;54.350;18.532;2022-07-23T05:37:29;14.63;;;7.93;;
19731;SDS011;10017;54.350;18.532;2022-07-23T05:40:07;13.55;;;6.80;;
19731;SDS011;10017;54.350;18.532;2022-07-23T05:42:41;13.55;;;7.38;;
19731;SDS011;10017;54.350;18.532;2022-07-23T05:45:15;10.60;;;6.30;;
19731;SDS011;10017;54.350;18.532;2022-07-23T05:47:47;16.27;;;6.47;;
19731;SDS011;10017;54.350;18.532;2022-07-23T05:50:20;12.98;;;6.85;;
19731;SDS011;10017;54.350;18.532;2022-07-23T05:52:52;9.68;;;6.00;;
19731;SDS011;10017;54.350;18.532;2022-07-23T05:55:24;11.80;;;5.93;;
19731;SDS011;10017;54.350;18.532;2022-07-23T05:57:57;9.38;;;5.22;;
19731;SDS011;10017;54.350;18.532;2022-07-23T06:00:30;7.70;;;4.80;;
19731;SDS011;10017;54.350;18.532;2022-07-23T06:03:04;8.02;;;5.32;;
19731;SDS011;10017;54.350;18.532;2022-07-23T06:05:38;10.13;;;5.32;;
19731;SDS011;10017;54.350;18.532;2022-07-23T06:08:10;10.80;;;4.90;;
19731;SDS011;10017;54.350;18.532;2022-07-23T06:10:42;7.05;;;4.63;;
19731;SDS011;10017;54.350;18.532;2022-07-23T06:13:17;7.18;;;4.63;;
19731;SDS011;10017;54.350;18.532;2022-07-23T06:15:52;6.82;;;3.60;;
19731;SDS011;10017;54.350;18.532;2022-07-23T06:18:24;9.25;;;3.15;;
19731;SDS011;10017;54.350;18.532;2022-07-23T06:20:59;6.60;;;3.13;;
19731;SDS011;10017;54.350;18.532;2022-07-23T06:23:33;6.20;;;3.22;;
19731;SDS011;10017;54.350;18.532;2022-07-23T06:26:05;6.30;;;2.95;;
19731;SDS011;10017;54.350;18.532;2022-07-23T06:39:50;6.65;;;2.85;;
19731;SDS011;10017;54.350;18.532;2022-07-23T06:42:23;5.78;;;3.10;;
19731;SDS011;10017;54.350;18.532;2022-07-23T06:44:55;4.32;;;2.67;;
19731;SDS011;10017;54.350;18.532;2022-07-23T06:47:27;8.35;;;3.17;;
19731;SDS011;10017;54.350;18.532;2022-07-23T06:49:59;6.32;;;2.58;;
19731;SDS011;10017;54.350;18.532;2022-07-23T06:52:31;6.13;;;2.90;;
19731;SDS011;10017;54.350;18.532;2022-07-23T06:55:03;6.85;;;3.13;;
19731;SDS011;10017;54.350;18.532;2022-07-23T06:57:37;5.15;;;2.83;;
19731;SDS011;10017;54.350;18.532;2022-07-23T07:00:10;4.38;;;2.75;;
19731;SDS011;10017;54.350;18.532;2022-07-23T07:02:42;6.97;;;2.95;;
19731;SDS011;10017;54.350;18.532;2022-07-23T07:05:14;6.57;;;3.05;;
19731;SDS011;10017;54.350;18.532;2022-07-23T07:07:47;4.68;;;3.58;;
19731;SDS011;10017;54.350;18.532;2022-07-23T07:10:19;5.68;;;3.40;;
19731;SDS011;10017;54.350;18.532;2022-07-23T07:12:53;9.30;;;3.58;;
19731;SDS011;10017;54.350;18.532;2022-07-23T07:15:25;5.88;;;3.42;;
19731;SDS011;10017;54.350;18.532;2022-07-23T07:17:57;7.75;;;4.25;;
19731;SDS011;10017;54.350;18.532;2022-07-23T07:20:30;5.97;;;3.53;;
19731;SDS011;10017;54.350;18.532;2022-07-23T07:23:04;5.47;;;3.50;;
19731;SDS011;10017;54.350;18.532;2022-07-23T07:25:36;8.60;;;4.40;;
19731;SDS011;10017;54.350;18.532;2022-07-23T07:28:08;10.40;;;3.60;;
19731;SDS011;10017;54.350;18.532;2022-07-23T07:30:40;7.47;;;3.70;;
19731;SDS011;10017;54.350;18.532;2022-07-23T07:33:15;7.97;;;4.07;;
19731;SDS011;10017;54.350;18.532;2022-07-23T07:35:47;7.55;;;4.32;;
19731;SDS011;10017;54.350;18.532;2022-07-23T07:38:19;8.23;;;4.32;;
19731;SDS011;10017;54.350;18.532;2022-07-23T07:40:51;5.97;;;4.15;;
19731;SDS011;10017;54.350;18.532;2022-07-23T07:43:23;6.28;;;4.03;;
19731;SDS011;10017;54.350;18.532;2022-07-23T07:45:55;6.40;;;4.15;;
19731;SDS011;10017;54.350;18.532;2022-07-23T07:48:28;7.85;;;4.70;;
19731;SDS011;10017;54.350;18.532;2022-07-23T07:51:00;7.35;;;4.82;;
19731;SDS011;10017;54.350;18.532;2022-07-23T07:53:33;6.10;;;4.60;;
19731;SDS011;10017;54.350;18.532;2022-07-23T07:56:06;6.78;;;4.90;;
19731;SDS011;10017;54.350;18.532;2022-07-23T07:58:38;6.47;;;4.30;;
19731;SDS011;10017;54.350;18.532;2022-07-23T08:01:10;6.57;;;4.90;;
19731;SDS011;10017;54.350;18.532;2022-07-23T08:03:45;7.72;;;4.18;;
19731;SDS011;10017;54.350;18.532;2022-07-23T08:06:17;5.70;;;4.35;;
19731;SDS011;10017;54.350;18.532;2022-07-23T08:08:52;6.45;;;4.35;;
19731;SDS011;10017;54.350;18.532;2022-07-23T08:11:24;6.95;;;4.70;;
19731;SDS011;10017;54.350;18.532;2022-07-23T08:13:59;10.35;;;5.03;;
19731;SDS011;10017;54.350;18.532;2022-07-23T08:16:31;7.15;;;4.57;;
19731;SDS011;10017;54.350;18.532;2022-07-23T08:19:23;8.27;;;5.28;;
19731;SDS011;10017;54.350;18.532;2022-07-23T08:21:55;6.05;;;4.35;;
19731;SDS011;10017;54.350;18.532;2022-07-23T08:24:27;7.00;;;4.20;;
19731;SDS011;10017;54.350;18.532;2022-07-23T08:27:01;5.88;;;4.35;;
19731;SDS011;10017;54.350;18.532;2022-07-23T08:29:34;7.35;;;4.90;;
19731;SDS011;10017;54.350;18.532;2022-07-23T08:32:08;5.50;;;4.55;;
19731;SDS011;10017;54.350;18.532;2022-07-23T08:35:03;5.50;;;4.63;;
19731;SDS011;10017;54.350;18.532;2022-07-23T08:37:36;10.38;;;4.95;;
19731;SDS011;10017;54.350;18.532;2022-07-23T08:40:08;9.40;;;4.63;;
19731;SDS011;10017;54.350;18.532;2022-07-23T08:42:41;8.77;;;5.25;;
19731;SDS011;10017;54.350;18.532;2022-07-23T08:45:13;6.30;;;5.35;;
19731;SDS011;10017;54.350;18.532;2022-07-23T08:47:51;5.78;;;4.80;;
19731;SDS011;10017;54.350;18.532;2022-07-23T08:50:28;8.32;;;5.13;;
19731;SDS011;10017;54.350;18.532;2022-07-23T08:53:00;6.55;;;5.00;;
19731;SDS011;10017;54.350;18.532;2022-07-23T08:55:35;8.13;;;5.28;;
19731;SDS011;10017;54.350;18.532;2022-07-23T08:58:08;10.65;;;5.30;;
19731;SDS011;10017;54.350;18.532;2022-07-23T09:00:40;6.53;;;5.25;;
19731;SDS011;10017;54.350;18.532;2022-07-23T09:03:22;6.93;;;4.88;;
19731;SDS011;10017;54.350;18.532;2022-07-23T09:05:56;10.27;;;5.38;;
19731;SDS011;10017;54.350;18.532;2022-07-23T09:08:37;6.32;;;5.22;;
19731;SDS011;10017;54.350;18.532;2022-07-23T09:11:10;7.60;;;5.47;;
19731;SDS011;10017;54.350;18.532;2022-07-23T09:13:51;5.80;;;5.18;;
19731;SDS011;10017;54.350;18.532;2022-07-23T09:16:31;7.15;;;4.90;;
19731;SDS011;10017;54.350;18.532;2022-07-23T09:19:06;8.07;;;4.88;;
19731;SDS011;10017;54.350;18.532;2022-07-23T09:21:43;7.55;;;4.80;;
19731;SDS011;10017;54.350;18.532;2022-07-23T09:24:15;7.78;;;4.82;;
19731;SDS011;10017;54.350;18.532;2022-07-23T09:26:48;9.10;;;4.97;;
19731;SDS011;10017;54.350;18.532;2022-07-23T09:29:40;9.02;;;5.20;;
19731;SDS011;10017;54.350;18.532;2022-07-23T09:32:30;6.68;;;5.28;;
19731;SDS011;10017;54.350;18.532;2022-07-23T09:35:02;5.53;;;4.80;;
19731;SDS011;10017;54.350;18.532;2022-07-23T09:37:35;7.60;;;5.07;;
19731;SDS011;10017;54.350;18.532;2022-07-23T09:40:09;6.57;;;5.22;;
19731;SDS011;10017;54.350;18.532;2022-07-23T09:42:54;5.05;;;4.55;;
19731;SDS011;10017;54.350;18.532;2022-07-23T09:45:28;7.05;;;5.70;;
19731;SDS011;10017;54.350;18.532;2022-07-23T09:51:02;8.35;;;5.70;;
19731;SDS011;10017;54.350;18.532;2022-07-23T09:53:35;7.22;;;5.82;;
19731;SDS011;10017;54.350;18.532;2022-07-23T09:56:07;8.10;;;5.30;;
19731;SDS011;10017;54.350;18.532;2022-07-23T09:58:40;7.00;;;5.53;;
19731;SDS011;10017;54.350;18.532;2022-07-23T10:01:17;6.93;;;5.38;;
19731;SDS011;10017;54.350;18.532;2022-07-23T10:03:51;8.95;;;5.45;;
19731;SDS011;10017;54.350;18.532;2022-07-23T10:06:23;9.85;;;5.70;;
19731;SDS011;10017;54.350;18.532;2022-07-23T10:08:58;7.05;;;5.30;;
19731;SDS011;10017;54.350;18.532;2022-07-23T10:11:33;10.38;;;6.35;;
19731;SDS011;10017;54.350;18.532;2022-07-23T10:14:07;8.48;;;5.65;;
19731;SDS011;10017;54.350;18.532;2022-07-23T10:16:39;8.60;;;4.85;;
19731;SDS011;10017;54.350;18.532;2022-07-23T10:19:14;8.50;;;5.43;;
19731;SDS011;10017;54.350;18.532;2022-07-23T10:21:48;8.60;;;5.55;;
19731;SDS011;10017;54.350;18.532;2022-07-23T10:30:16;12.40;;;5.55;;
19731;SDS011;10017;54.350;18.532;2022-07-23T10:33:20;7.90;;;5.63;;
19731;SDS011;10017;54.350;18.532;2022-07-23T10:38:58;8.40;;;5.57;;
19731;SDS011;10017;54.350;18.532;2022-07-23T10:41:43;8.13;;;5.68;;
19731;SDS011;10017;54.350;18.532;2022-07-23T10:44:18;7.32;;;5.20;;
19731;SDS011;10017;54.350;18.532;2022-07-23T10:49:52;9.80;;;5.78;;
19731;SDS011;10017;54.350;18.532;2022-07-23T10:52:26;10.93;;;5.80;;
19731;SDS011;10017;54.350;18.532;2022-07-23T10:57:46;13.07;;;5.72;;
19731;SDS011;10017;54.350;18.532;2022-07-23T11:03:00;10.02;;;5.80;;
19731;SDS011;10017;54.350;18.532;2022-07-23T11:08:11;8.60;;;6.10;;
19731;SDS011;10017;54.350;18.532;2022-07-23T11:10:50;7.75;;;5.82;;
19731;SDS011;10017;54.350;18.532;2022-07-23T11:16:17;8.90;;;5.30;;
19731;SDS011;10017;54.350;18.532;2022-07-23T11:18:54;8.25;;;5.60;;
19731;SDS011;10017;54.350;18.532;2022-07-23T11:32:01;8.82;;;6.10;;
19731;SDS011;10017;54.350;18.532;2022-07-23T11:34:42;9.82;;;5.85;;
19731;SDS011;10017;54.350;18.532;2022-07-23T11:37:28;8.30;;;5.70;;
19731;SDS011;10017;54.350;18.532;2022-07-23T11:40:11;7.40;;;5.60;;
19731;SDS011;10017;54.350;18.532;2022-07-23T11:45:31;8.30;;;5.43;;
19731;SDS011;10017;54.350;18.532;2022-07-23T11:50:56;9.18;;;4.95;;
19731;SDS011;10017;54.350;18.532;2022-07-23T11:53:30;7.13;;;5.30;;
19731;SDS011;10017;54.350;18.532;2022-07-23T11:56:04;7.18;;;5.50;;
19731;SDS011;10017;54.350;18.532;2022-07-23T11:58:41;9.02;;;6.13;;
19731;SDS011;10017;54.350;18.532;2022-07-23T12:01:26;10.75;;;6.32;;
19731;SDS011;10017;54.350;18.532;2022-07-23T12:03:59;9.48;;;6.07;;
19731;SDS011;10017;54.350;18.532;2022-07-23T12:06:37;8.85;;;5.75;;
19731;SDS011;10017;54.350;18.532;2022-07-23T12:09:10;8.35;;;5.65;;
19731;SDS011;10017;54.350;18.532;2022-07-23T12:11:58;7.30;;;5.72;;
19731;SDS011;10017;54.350;18.532;2022-07-23T12:14:31;7.93;;;6.10;;
19731;SDS011;10017;54.350;18.532;2022-07-23T12:17:07;11.60;;;5.85;;
19731;SDS011;10017;54.350;18.532;2022-07-23T12:19:42;9.75;;;6.68;;
19731;SDS011;10017;54.350;18.532;2022-07-23T12:22:20;10.50;;;6.20;;
19731;SDS011;10017;54.350;18.532;2022-07-23T12:27:28;10.02;;;6.38;;
19731;SDS011;10017;54.350;18.532;2022-07-23T12:30:17;10.73;;;7.70;;
19731;SDS011;10017;54.350;18.532;2022-07-23T12:32:52;11.93;;;7.20;;
19731;SDS011;10017;54.350;18.532;2022-07-23T12:35:32;13.70;;;8.02;;
19731;SDS011;10017;54.350;18.532;2022-07-23T12:38:16;10.02;;;6.97;;
19731;SDS011;10017;54.350;18.532;2022-07-23T12:40:55;13.30;;;8.27;;
19731;SDS011;10017;54.350;18.532;2022-07-23T12:43:35;11.18;;;6.72;;
19731;SDS011;10017;54.350;18.532;2022-07-23T12:46:18;10.68;;;6.90;;
19731;SDS011;10017;54.350;18.532;2022-07-23T12:48:52;9.85;;;6.00;;
19731;SDS011;10017;54.350;18.532;2022-07-23T12:51:26;10.40;;;6.65;;
19731;SDS011;10017;54.350;18.532;2022-07-23T12:54:04;8.25;;;6.07;;
19731;SDS011;10017;54.350;18.532;2022-07-23T12:56:39;8.32;;;6.50;;
19731;SDS011;10017;54.350;18.532;2022-07-23T12:59:21;8.07;;;6.35;;
19731;SDS011;10017;54.350;18.532;2022-07-23T13:01:54;10.10;;;6.30;;
19731;SDS011;10017;54.350;18.532;2022-07-23T13:04:32;9.50;;;6.28;;
19731;SDS011;10017;54.350;18.532;2022-07-23T13:07:05;9.88;;;6.53;;
19731;SDS011;10017;54.350;18.532;2022-07-23T13:09:37;8.45;;;6.47;;
19731;SDS011;10017;54.350;18.532;2022-07-23T13:12:13;7.53;;;5.53;;
19731;SDS011;10017;54.350;18.532;2022-07-23T13:14:47;8.15;;;6.13;;
19731;SDS011;10017;54.350;18.532;2022-07-23T13:17:19;7.82;;;6.03;;
19731;SDS011;10017;54.350;18.532;2022-07-23T13:19:52;8.65;;;5.38;;
19731;SDS011;10017;54.350;18.532;2022-07-23T13:22:28;8.32;;;6.15;;
19731;SDS011;10017;54.350;18.532;2022-07-23T13:25:00;8.45;;;5.40;;
19731;SDS011;10017;54.350;18.532;2022-07-23T13:27:35;8.48;;;5.60;;
19731;SDS011;10017;54.350;18.532;2022-07-23T13:30:13;6.80;;;5.55;;
19731;SDS011;10017;54.350;18.532;2022-07-23T13:32:47;9.85;;;5.65;;
19731;SDS011;10017;54.350;18.532;2022-07-23T13:35:20;7.93;;;5.30;;
19731;SDS011;10017;54.350;18.532;2022-07-23T13:37:52;9.23;;;5.35;;
19731;SDS011;10017;54.350;18.532;2022-07-23T13:40:24;9.07;;;5.28;;
19731;SDS011;10017;54.350;18.532;2022-07-23T13:43:00;6.30;;;5.03;;
19731;SDS011;10017;54.350;18.532;2022-07-23T13:45:38;6.65;;;4.97;;
19731;SDS011;10017;54.350;18.532;2022-07-23T13:48:11;8.27;;;5.22;;
19731;SDS011;10017;54.350;18.532;2022-07-23T13:50:47;7.25;;;5.53;;
19731;SDS011;10017;54.350;18.532;2022-07-23T13:53:21;5.78;;;4.60;;
19731;SDS011;10017;54.350;18.532;2022-07-23T13:55:55;6.63;;;4.97;;
19731;SDS011;10017;54.350;18.532;2022-07-23T13:58:28;6.63;;;5.00;;
19731;SDS011;10017;54.350;18.532;2022-07-23T14:01:03;6.13;;;4.72;;
19731;SDS011;10017;54.350;18.532;2022-07-23T14:03:36;7.57;;;5.28;;
19731;SDS011;10017;54.350;18.532;2022-07-23T14:06:10;6.25;;;5.38;;
19731;SDS011;10017;54.350;18.532;2022-07-23T14:08:46;5.72;;;4.78;;
19731;SDS011;10017;54.350;18.532;2022-07-23T14:11:22;7.13;;;4.75;;
19731;SDS011;10017;54.350;18.532;2022-07-23T14:13:56;6.40;;;5.32;;
19731;SDS011;10017;54.350;18.532;2022-07-23T14:16:28;6.25;;;5.25;;
19731;SDS011;10017;54.350;18.532;2022-07-23T14:19:00;9.32;;;5.75;;
19731;SDS011;10017;54.350;18.532;2022-07-23T14:21:34;6.22;;;5.03;;
19731;SDS011;10017;54.350;18.532;2022-07-23T14:24:06;6.60;;;4.75;;
19731;SDS011;10017;54.350;18.532;2022-07-23T14:26:39;5.43;;;4.78;;
19731;SDS011;10017;54.350;18.532;2022-07-23T14:29:13;5.80;;;5.20;;
19731;SDS011;10017;54.350;18.532;2022-07-23T14:31:45;6.85;;;5.28;;
19731;SDS011;10017;54.350;18.532;2022-07-23T14:34:17;6.00;;;5.38;;
19731;SDS011;10017;54.350;18.532;2022-07-23T14:36:58;5.85;;;5.25;;
19731;SDS011;10017;54.350;18.532;2022-07-23T14:39:31;5.32;;;4.82;;
19731;SDS011;10017;54.350;18.532;2022-07-23T14:42:06;6.40;;;5.25;;
19731;SDS011;10017;54.350;18.532;2022-07-23T14:44:38;6.30;;;5.28;;
19731;SDS011;10017;54.350;18.532;2022-07-23T14:47:10;6.93;;;5.50;;
19731;SDS011;10017;54.350;18.532;2022-07-23T14:49:44;7.03;;;5.68;;
19731;SDS011;10017;54.350;18.532;2022-07-23T14:52:18;7.60;;;6.00;;
19731;SDS011;10017;54.350;18.532;2022-07-23T14:54:51;7.88;;;5.82;;
19731;SDS011;10017;54.350;18.532;2022-07-23T14:57:23;7.65;;;5.20;;
19731;SDS011;10017;54.350;18.532;2022-07-23T14:59:58;8.13;;;5.53;;
19731;SDS011;10017;54.350;18.532;2022-07-23T15:02:32;6.82;;;5.70;;
19731;SDS011;10017;54.350;18.532;2022-07-23T15:05:06;7.07;;;5.68;;
19731;SDS011;10017;54.350;18.532;2022-07-23T15:07:39;7.57;;;5.47;;
19731;SDS011;10017;54.350;18.532;2022-07-23T15:10:11;6.35;;;5.72;;
19731;SDS011;10017;54.350;18.532;2022-07-23T15:12:45;8.07;;;5.20;;
19731;SDS011;10017;54.350;18.532;2022-07-23T15:15:19;6.13;;;5.53;;
19731;SDS011;10017;54.350;18.532;2022-07-23T15:17:51;6.95;;;5.53;;
19731;SDS011;10017;54.350;18.532;2022-07-23T15:20:27;8.38;;;5.80;;
19731;SDS011;10017;54.350;18.532;2022-07-23T15:23:10;6.80;;;5.97;;
19731;SDS011;10017;54.350;18.532;2022-07-23T15:25:45;7.28;;;5.97;;
19731;SDS011;10017;54.350;18.532;2022-07-23T15:28:21;6.82;;;6.15;;
19731;SDS011;10017;54.350;18.532;2022-07-23T15:30:58;7.55;;;5.95;;
19731;SDS011;10017;54.350;18.532;2022-07-23T15:33:32;7.32;;;5.78;;
19731;SDS011;10017;54.350;18.532;2022-07-23T15:36:04;6.93;;;6.22;;
19731;SDS011;10017;54.350;18.532;2022-07-23T15:38:40;6.65;;;5.75;;
19731;SDS011;10017;54.350;18.532;2022-07-23T15:41:14;7.35;;;6.28;;
19731;SDS011;10017;54.350;18.532;2022-07-23T15:43:46;8.15;;;6.15;;
19731;SDS011;10017;54.350;18.532;2022-07-23T15:46:22;7.55;;;6.13;;
19731;SDS011;10017;54.350;18.532;2022-07-23T15:48:57;8.13;;;5.93;;
19731;SDS011;10017;54.350;18.532;2022-07-23T15:51:32;8.38;;;5.50;;
19731;SDS011;10017;54.350;18.532;2022-07-23T15:54:04;9.25;;;5.75;;
19731;SDS011;10017;54.350;18.532;2022-07-23T15:56:37;8.68;;;5.95;;
19731;SDS011;10017;54.350;18.532;2022-07-23T15:59:11;9.13;;;5.65;;
19731;SDS011;10017;54.350;18.532;2022-07-23T16:01:43;8.00;;;5.93;;
19731;SDS011;10017;54.350;18.532;2022-07-23T16:04:20;6.88;;;5.85;;
19731;SDS011;10017;54.350;18.532;2022-07-23T16:06:53;6.97;;;5.90;;